sensor_id;sensor_type;location;lat;lon;timestamp;P1;durP1;ratioP1;P2;durP2;ratioP2
34302;SDS011;20785;50.020;19.916;2022-11-15T00:05:48;32.33;;;14.73;;
34302;SDS011;20785;50.020;19.916;2022-11-15T00:12:10;29.10;;;12.95;;
34302;SDS011;20785;50.020;19.916;2022-11-15T00:18:33;30.30;;;13.53;;
34302;SDS011;20785;50.020;19.916;2022-11-15T00:24:52;25.23;;;11.35;;
34302;SDS011;20785;50.020;19.916;2022-11-15T00:31:15;24.60;;;11.50;;
34302;SDS011;20785;50.020;19.916;2022-11-15T00:37:37;27.00;;;11.90;;
34302;SDS011;20785;50.020;19.916;2022-11-15T00:44:16;28.95;;;12.13;;
34302;SDS011;20785;50.020;19.916;2022-11-15T00:57:18;31.30;;;13.55;;
34302;SDS011;20785;50.020;19.916;2022-11-15T01:03:41;32.17;;;12.82;;
34302;SDS011;20785;50.020;19.916;2022-11-15T01:10:12;26.25;;;12.00;;
34302;SDS011;20785;50.020;19.916;2022-11-15T01:16:36;30.80;;;12.30;;
34302;SDS011;20785;50.020;19.916;2022-11-15T01:23:00;30.10;;;12.35;;
34302;SDS011;20785;50.020;19.916;2022-11-15T01:29:20;30.68;;;11.80;;
34302;SDS011;20785;50.020;19.916;2022-11-15T01:35:40;24.63;;;10.65;;
34302;SDS011;20785;50.020;19.916;2022-11-15T01:42:00;27.48;;;11.45;;
34302;SDS011;20785;50.020;19.916;2022-11-15T01:48:19;26.80;;;10.82;;
34302;SDS011;20785;50.020;19.916;2022-11-15T01:54:45;27.13;;;11.55;;
34302;SDS011;20785;50.020;19.916;2022-11-15T02:01:08;23.65;;;11.57;;
34302;SDS011;20785;50.020;19.916;2022-11-15T02:07:28;25.97;;;11.18;;
34302;SDS011;20785;50.020;19.916;2022-11-15T02:13:50;29.25;;;11.93;;
34302;SDS011;20785;50.020;19.916;2022-11-15T02:40:35;23.18;;;11.15;;
34302;SDS011;20785;50.020;19.916;2022-11-15T02:47:08;18.65;;;9.63;;
34302;SDS011;20785;50.020;19.916;2022-11-15T02:53:33;20.43;;;10.10;;
34302;SDS011;20785;50.020;19.916;2022-11-15T02:59:56;20.37;;;10.63;;
34302;SDS011;20785;50.020;19.916;2022-11-15T03:19:58;17.17;;;9.45;;
34302;SDS011;20785;50.020;19.916;2022-11-15T03:26:21;15.65;;;9.60;;
34302;SDS011;20785;50.020;19.916;2022-11-15T03:32:45;17.00;;;9.33;;
34302;SDS011;20785;50.020;19.916;2022-11-15T03:39:11;19.85;;;9.53;;
34302;SDS011;20785;50.020;19.916;2022-11-15T03:45:35;17.42;;;9.05;;
34302;SDS011;20785;50.020;19.916;2022-11-15T03:52:02;17.05;;;9.30;;
34302;SDS011;20785;50.020;19.916;2022-11-15T03:58:23;19.42;;;9.50;;
34302;SDS011;20785;50.020;19.916;2022-11-15T04:04:43;15.83;;;8.30;;
34302;SDS011;20785;50.020;19.916;2022-11-15T04:11:03;14.07;;;7.92;;
34302;SDS011;20785;50.020;19.916;2022-11-15T04:17:23;18.92;;;9.10;;
34302;SDS011;20785;50.020;19.916;2022-11-15T04:23:42;18.95;;;7.95;;
34302;SDS011;20785;50.020;19.916;2022-11-15T04:30:21;17.55;;;7.97;;
34302;SDS011;20785;50.020;19.916;2022-11-15T04:36:40;18.57;;;7.62;;
34302;SDS011;20785;50.020;19.916;2022-11-15T04:43:19;21.95;;;6.58;;
34302;SDS011;20785;50.020;19.916;2022-11-15T04:49:39;14.87;;;6.92;;
34302;SDS011;20785;50.020;19.916;2022-11-15T04:55:58;14.78;;;7.35;;
34302;SDS011;20785;50.020;19.916;2022-11-15T05:02:18;16.90;;;7.00;;
34302;SDS011;20785;50.020;19.916;2022-11-15T05:08:38;13.58;;;6.65;;
34302;SDS011;20785;50.020;19.916;2022-11-15T05:14:58;17.62;;;7.12;;
34302;SDS011;20785;50.020;19.916;2022-11-15T05:21:20;14.73;;;7.50;;
34302;SDS011;20785;50.020;19.916;2022-11-15T05:27:40;16.77;;;7.00;;
34302;SDS011;20785;50.020;19.916;2022-11-15T05:34:00;16.62;;;7.30;;
34302;SDS011;20785;50.020;19.916;2022-11-15T05:40:23;16.82;;;7.55;;
34302;SDS011;20785;50.020;19.916;2022-11-15T05:46:43;20.57;;;7.35;;
34302;SDS011;20785;50.020;19.916;2022-11-15T05:53:04;13.38;;;7.08;;
34302;SDS011;20785;50.020;19.916;2022-11-15T05:59:24;17.15;;;8.00;;
34302;SDS011;20785;50.020;19.916;2022-11-15T06:05:45;17.73;;;8.55;;
34302;SDS011;20785;50.020;19.916;2022-11-15T06:12:05;17.20;;;8.28;;
34302;SDS011;20785;50.020;19.916;2022-11-15T06:18:25;16.90;;;8.68;;
34302;SDS011;20785;50.020;19.916;2022-11-15T06:24:45;19.82;;;9.48;;
34302;SDS011;20785;50.020;19.916;2022-11-15T06:31:07;24.07;;;8.23;;
34302;SDS011;20785;50.020;19.916;2022-11-15T06:37:30;17.87;;;8.93;;
34302;SDS011;20785;50.020;19.916;2022-11-15T06:43:52;19.85;;;8.40;;
34302;SDS011;20785;50.020;19.916;2022-11-15T06:50:13;17.17;;;8.95;;
34302;SDS011;20785;50.020;19.916;2022-11-15T06:56:35;17.57;;;9.15;;
34302;SDS011;20785;50.020;19.916;2022-11-15T07:02:54;16.27;;;8.58;;
34302;SDS011;20785;50.020;19.916;2022-11-15T07:09:14;17.82;;;9.18;;
34302;SDS011;20785;50.020;19.916;2022-11-15T07:15:35;15.72;;;8.55;;
34302;SDS011;20785;50.020;19.916;2022-11-15T07:21:55;19.30;;;8.38;;
34302;SDS011;20785;50.020;19.916;2022-11-15T07:28:14;14.47;;;7.80;;
34302;SDS011;20785;50.020;19.916;2022-11-15T07:34:34;17.82;;;8.75;;
34302;SDS011;20785;50.020;19.916;2022-11-15T07:40:57;13.80;;;7.25;;
34302;SDS011;20785;50.020;19.916;2022-11-15T07:47:20;14.40;;;7.60;;
34302;SDS011;20785;50.020;19.916;2022-11-15T07:53:44;13.93;;;7.42;;
34302;SDS011;20785;50.020;19.916;2022-11-15T08:00:05;17.73;;;8.55;;
34302;SDS011;20785;50.020;19.916;2022-11-15T08:06:25;14.73;;;8.23;;
34302;SDS011;20785;50.020;19.916;2022-11-15T08:13:05;15.55;;;8.43;;
34302;SDS011;20785;50.020;19.916;2022-11-15T08:19:18;16.23;;;8.98;;
34302;SDS011;20785;50.020;19.916;2022-11-15T08:25:38;18.40;;;9.05;;
34302;SDS011;20785;50.020;19.916;2022-11-15T08:31:58;16.60;;;9.23;;
34302;SDS011;20785;50.020;19.916;2022-11-15T08:38:17;19.27;;;8.45;;
34302;SDS011;20785;50.020;19.916;2022-11-15T08:44:37;15.83;;;8.65;;
34302;SDS011;20785;50.020;19.916;2022-11-15T08:50:57;17.57;;;8.73;;
34302;SDS011;20785;50.020;19.916;2022-11-15T08:57:16;16.15;;;9.63;;
34302;SDS011;20785;50.020;19.916;2022-11-15T09:03:36;23.02;;;10.78;;
34302;SDS011;20785;50.020;19.916;2022-11-15T09:09:59;18.48;;;10.03;;
34302;SDS011;20785;50.020;19.916;2022-11-15T09:16:19;17.77;;;10.15;;
34302;SDS011;20785;50.020;19.916;2022-11-15T09:22:39;19.00;;;10.30;;
34302;SDS011;20785;50.020;19.916;2022-11-15T09:28:58;17.87;;;10.18;;
34302;SDS011;20785;50.020;19.916;2022-11-15T09:35:20;17.85;;;10.88;;
34302;SDS011;20785;50.020;19.916;2022-11-15T09:55:17;32.50;;;16.20;;
34302;SDS011;20785;50.020;19.916;2022-11-15T10:08:05;33.48;;;16.57;;
34302;SDS011;20785;50.020;19.916;2022-11-15T10:14:22;32.93;;;16.67;;
34302;SDS011;20785;50.020;19.916;2022-11-15T10:20:28;28.67;;;15.48;;
34302;SDS011;20785;50.020;19.916;2022-11-15T10:26:31;35.83;;;20.48;;
34302;SDS011;20785;50.020;19.916;2022-11-15T10:32:33;26.48;;;14.53;;
34302;SDS011;20785;50.020;19.916;2022-11-15T10:38:56;27.25;;;15.25;;
34302;SDS011;20785;50.020;19.916;2022-11-15T10:44:53;23.50;;;13.30;;
34302;SDS011;20785;50.020;19.916;2022-11-15T10:50:55;21.07;;;13.22;;
34302;SDS011;20785;50.020;19.916;2022-11-15T10:56:58;22.52;;;13.25;;
34302;SDS011;20785;50.020;19.916;2022-11-15T11:03:03;20.23;;;11.97;;
34302;SDS011;20785;50.020;19.916;2022-11-15T11:09:31;27.58;;;13.85;;
34302;SDS011;20785;50.020;19.916;2022-11-15T11:15:36;21.17;;;13.38;;
34302;SDS011;20785;50.020;19.916;2022-11-15T11:21:48;26.77;;;16.27;;
34302;SDS011;20785;50.020;19.916;2022-11-15T11:28:01;25.50;;;15.70;;
34302;SDS011;20785;50.020;19.916;2022-11-15T11:41:04;30.65;;;18.17;;
34302;SDS011;20785;50.020;19.916;2022-11-15T11:47:23;36.58;;;19.98;;
34302;SDS011;20785;50.020;19.916;2022-11-15T11:53:29;30.20;;;17.30;;
34302;SDS011;20785;50.020;19.916;2022-11-15T11:59:47;36.73;;;19.70;;
34302;SDS011;20785;50.020;19.916;2022-11-15T12:06:02;36.85;;;20.32;;
34302;SDS011;20785;50.020;19.916;2022-11-15T12:18:36;34.45;;;19.95;;
34302;SDS011;20785;50.020;19.916;2022-11-15T12:24:40;35.40;;;21.10;;
34302;SDS011;20785;50.020;19.916;2022-11-15T12:30:50;32.93;;;18.70;;
34302;SDS011;20785;50.020;19.916;2022-11-15T12:36:54;39.00;;;21.07;;
34302;SDS011;20785;50.020;19.916;2022-11-15T12:49:16;43.05;;;22.02;;
34302;SDS011;20785;50.020;19.916;2022-11-15T12:55:32;38.73;;;20.90;;
34302;SDS011;20785;50.020;19.916;2022-11-15T13:13:48;36.42;;;20.75;;
34302;SDS011;20785;50.020;19.916;2022-11-15T13:20:50;35.78;;;21.17;;
34302;SDS011;20785;50.020;19.916;2022-11-15T13:26:13;36.73;;;19.60;;
34302;SDS011;20785;50.020;19.916;2022-11-15T13:32:18;38.55;;;20.02;;
34302;SDS011;20785;50.020;19.916;2022-11-15T13:44:33;35.65;;;19.73;;
34302;SDS011;20785;50.020;19.916;2022-11-15T13:50:35;32.48;;;18.23;;
34302;SDS011;20785;50.020;19.916;2022-11-15T13:56:40;32.13;;;17.92;;
34302;SDS011;20785;50.020;19.916;2022-11-15T14:02:46;31.62;;;17.85;;
34302;SDS011;20785;50.020;19.916;2022-11-15T14:09:02;30.92;;;18.60;;
34302;SDS011;20785;50.020;19.916;2022-11-15T14:21:28;31.33;;;17.20;;
34302;SDS011;20785;50.020;19.916;2022-11-15T14:27:30;34.88;;;17.25;;
34302;SDS011;20785;50.020;19.916;2022-11-15T14:33:34;31.42;;;17.02;;
34302;SDS011;20785;50.020;19.916;2022-11-15T14:39:37;36.80;;;19.65;;
34302;SDS011;20785;50.020;19.916;2022-11-15T14:45:39;33.60;;;18.07;;
34302;SDS011;20785;50.020;19.916;2022-11-15T14:51:41;32.85;;;18.55;;
34302;SDS011;20785;50.020;19.916;2022-11-15T14:57:42;30.32;;;17.87;;
34302;SDS011;20785;50.020;19.916;2022-11-15T15:03:44;31.00;;;17.82;;
34302;SDS011;20785;50.020;19.916;2022-11-15T15:09:45;31.30;;;16.25;;
34302;SDS011;20785;50.020;19.916;2022-11-15T15:15:47;36.23;;;18.62;;
34302;SDS011;20785;50.020;19.916;2022-11-15T15:21:51;30.80;;;17.55;;
34302;SDS011;20785;50.020;19.916;2022-11-15T15:27:52;32.53;;;16.77;;
34302;SDS011;20785;50.020;19.916;2022-11-15T15:33:54;31.00;;;16.65;;
34302;SDS011;20785;50.020;19.916;2022-11-15T15:39:56;30.77;;;16.50;;
34302;SDS011;20785;50.020;19.916;2022-11-15T15:45:57;31.20;;;17.67;;
34302;SDS011;20785;50.020;19.916;2022-11-15T15:51:59;41.50;;;20.85;;
34302;SDS011;20785;50.020;19.916;2022-11-15T15:58:00;34.05;;;17.80;;
34302;SDS011;20785;50.020;19.916;2022-11-15T16:04:01;39.75;;;20.35;;
34302;SDS011;20785;50.020;19.916;2022-11-15T16:10:36;40.78;;;21.57;;
34302;SDS011;20785;50.020;19.916;2022-11-15T16:16:26;39.63;;;22.00;;
34302;SDS011;20785;50.020;19.916;2022-11-15T16:22:29;40.30;;;21.77;;
34302;SDS011;20785;50.020;19.916;2022-11-15T16:28:32;32.73;;;18.98;;
34302;SDS011;20785;50.020;19.916;2022-11-15T16:34:34;35.98;;;19.82;;
34302;SDS011;20785;50.020;19.916;2022-11-15T16:40:35;36.08;;;18.67;;
34302;SDS011;20785;50.020;19.916;2022-11-15T16:46:36;35.13;;;18.52;;
34302;SDS011;20785;50.020;19.916;2022-11-15T16:52:39;36.68;;;20.52;;
34302;SDS011;20785;50.020;19.916;2022-11-15T16:58:40;45.33;;;25.90;;
34302;SDS011;20785;50.020;19.916;2022-11-15T17:04:42;42.25;;;24.20;;
34302;SDS011;20785;50.020;19.916;2022-11-15T17:10:43;50.88;;;28.25;;
34302;SDS011;20785;50.020;19.916;2022-11-15T17:16:45;35.73;;;20.08;;
34302;SDS011;20785;50.020;19.916;2022-11-15T17:22:50;34.23;;;19.98;;
34302;SDS011;20785;50.020;19.916;2022-11-15T17:28:54;40.83;;;20.90;;
34302;SDS011;20785;50.020;19.916;2022-11-15T17:34:59;30.95;;;18.62;;
34302;SDS011;20785;50.020;19.916;2022-11-15T17:41:06;36.53;;;19.60;;
34302;SDS011;20785;50.020;19.916;2022-11-15T17:47:10;36.68;;;20.62;;
34302;SDS011;20785;50.020;19.916;2022-11-15T17:53:12;39.27;;;21.07;;
34302;SDS011;20785;50.020;19.916;2022-11-15T17:59:15;35.23;;;19.23;;
34302;SDS011;20785;50.020;19.916;2022-11-15T18:05:21;39.53;;;19.73;;
34302;SDS011;20785;50.020;19.916;2022-11-15T18:11:34;40.17;;;20.57;;
34302;SDS011;20785;50.020;19.916;2022-11-15T18:17:41;37.35;;;20.65;;
34302;SDS011;20785;50.020;19.916;2022-11-15T18:23:42;35.28;;;21.02;;
34302;SDS011;20785;50.020;19.916;2022-11-15T18:29:47;35.48;;;19.92;;
34302;SDS011;20785;50.020;19.916;2022-11-15T18:35:57;37.05;;;20.52;;
34302;SDS011;20785;50.020;19.916;2022-11-15T18:42:03;40.85;;;21.93;;
34302;SDS011;20785;50.020;19.916;2022-11-15T18:48:04;36.95;;;21.27;;
34302;SDS011;20785;50.020;19.916;2022-11-15T18:54:07;44.23;;;24.32;;
34302;SDS011;20785;50.020;19.916;2022-11-15T19:00:11;40.52;;;23.12;;
34302;SDS011;20785;50.020;19.916;2022-11-15T19:06:16;42.65;;;23.02;;
34302;SDS011;20785;50.020;19.916;2022-11-15T19:12:21;40.58;;;23.52;;
34302;SDS011;20785;50.020;19.916;2022-11-15T19:18:22;44.60;;;25.10;;
34302;SDS011;20785;50.020;19.916;2022-11-15T19:24:24;41.15;;;22.20;;
34302;SDS011;20785;50.020;19.916;2022-11-15T19:30:26;45.23;;;25.55;;
34302;SDS011;20785;50.020;19.916;2022-11-15T19:36:28;51.73;;;26.90;;
34302;SDS011;20785;50.020;19.916;2022-11-15T19:42:32;49.45;;;26.65;;
34302;SDS011;20785;50.020;19.916;2022-11-15T19:48:37;52.00;;;26.25;;
34302;SDS011;20785;50.020;19.916;2022-11-15T19:54:43;48.42;;;26.85;;
34302;SDS011;20785;50.020;19.916;2022-11-15T20:00:42;47.83;;;26.90;;
34302;SDS011;20785;50.020;19.916;2022-11-15T20:06:44;46.23;;;24.32;;
34302;SDS011;20785;50.020;19.916;2022-11-15T20:12:45;42.25;;;23.42;;
34302;SDS011;20785;50.020;19.916;2022-11-15T20:18:49;44.15;;;25.02;;
34302;SDS011;20785;50.020;19.916;2022-11-15T20:24:51;45.95;;;24.50;;
34302;SDS011;20785;50.020;19.916;2022-11-15T20:37:59;45.00;;;25.02;;
34302;SDS011;20785;50.020;19.916;2022-11-15T20:44:06;46.33;;;25.15;;
34302;SDS011;20785;50.020;19.916;2022-11-15T20:50:11;45.25;;;26.12;;
34302;SDS011;20785;50.020;19.916;2022-11-15T20:56:40;49.30;;;27.17;;
34302;SDS011;20785;50.020;19.916;2022-11-15T21:02:49;49.38;;;25.30;;
34302;SDS011;20785;50.020;19.916;2022-11-15T21:15:34;50.10;;;28.12;;
34302;SDS011;20785;50.020;19.916;2022-11-15T21:21:46;57.93;;;31.27;;
34302;SDS011;20785;50.020;19.916;2022-11-15T21:27:51;58.60;;;30.73;;
34302;SDS011;20785;50.020;19.916;2022-11-15T21:33:52;55.65;;;30.75;;
34302;SDS011;20785;50.020;19.916;2022-11-15T21:39:56;53.80;;;30.43;;
34302;SDS011;20785;50.020;19.916;2022-11-15T21:46:03;52.75;;;29.57;;
34302;SDS011;20785;50.020;19.916;2022-11-15T21:52:06;50.58;;;29.00;;
34302;SDS011;20785;50.020;19.916;2022-11-15T21:58:07;46.98;;;27.75;;
34302;SDS011;20785;50.020;19.916;2022-11-15T22:04:09;47.95;;;27.90;;
34302;SDS011;20785;50.020;19.916;2022-11-15T22:10:10;51.40;;;28.00;;
34302;SDS011;20785;50.020;19.916;2022-11-15T22:16:11;51.35;;;29.18;;
34302;SDS011;20785;50.020;19.916;2022-11-15T22:22:12;55.73;;;29.98;;
34302;SDS011;20785;50.020;19.916;2022-11-15T22:28:14;49.85;;;28.23;;
34302;SDS011;20785;50.020;19.916;2022-11-15T22:34:15;53.87;;;29.50;;
34302;SDS011;20785;50.020;19.916;2022-11-15T22:40:18;48.25;;;28.67;;
34302;SDS011;20785;50.020;19.916;2022-11-15T22:46:19;51.30;;;28.42;;
34302;SDS011;20785;50.020;19.916;2022-11-15T22:52:21;49.80;;;28.50;;
34302;SDS011;20785;50.020;19.916;2022-11-15T22:58:23;49.65;;;28.30;;
34302;SDS011;20785;50.020;19.916;2022-11-15T23:04:27;69.92;;;38.98;;
34302;SDS011;20785;50.020;19.916;2022-11-15T23:10:29;77.22;;;42.40;;
34302;SDS011;20785;50.020;19.916;2022-11-15T23:16:49;75.35;;;42.75;;
34302;SDS011;20785;50.020;19.916;2022-11-15T23:22:50;72.85;;;41.77;;
34302;SDS011;20785;50.020;19.916;2022-11-15T23:28:51;72.05;;;39.03;;
34302;SDS011;20785;50.020;19.916;2022-11-15T23:34:53;69.27;;;38.60;;
34302;SDS011;20785;50.020;19.916;2022-11-15T23:40:54;67.85;;;37.33;;
34302;SDS011;20785;50.020;19.916;2022-11-15T23:46:56;71.33;;;38.38;;
34302;SDS011;20785;50.020;19.916;2022-11-15T23:52:57;65.08;;;36.88;;
34302;SDS011;20785;50.020;19.916;2022-11-15T23:58:59;67.95;;;37.75;;
